sensor_id;sensor_type;location;lat;lon;timestamp;pressure;altitude;pressure_sealevel;temperature;humidity
8477;BME280;4275;42.854;23.222;2023-09-19T00:01:06;38413.81;;;-141.02;100.00
8477;BME280;4275;42.854;23.222;2023-09-19T00:03:34;38385.06;;;-141.02;100.00
8477;BME280;4275;42.854;23.222;2023-09-19T00:06:05;38362.06;;;-141.02;100.00
8477;BME280;4275;42.854;23.222;2023-09-19T00:08:33;38388.91;;;-141.02;100.00
8477;BME280;4275;42.854;23.222;2023-09-19T00:11:00;38346.72;;;-141.02;100.00
8477;BME280;4275;42.854;23.222;2023-09-19T00:13:31;38342.88;;;-141.02;100.00
8477;BME280;4275;42.854;23.222;2023-09-19T00:15:59;38329.47;;;-141.02;100.00
8477;BME280;4275;42.854;23.222;2023-09-19T00:18:27;38323.72;;;-141.02;100.00
8477;BME280;4275;42.854;23.222;2023-09-19T00:20:58;38312.22;;;-141.02;100.00
8477;BME280;4275;42.854;23.222;2023-09-19T00:23:29;38310.28;;;-141.02;100.00
8477;BME280;4275;42.854;23.222;2023-09-19T00:25:58;38285.38;;;-141.02;100.00
8477;BME280;4275;42.854;23.222;2023-09-19T00:28:26;38248.94;;;-141.02;100.00
8477;BME280;4275;42.854;23.222;2023-09-19T00:30:53;38256.63;;;-141.02;100.00
8477;BME280;4275;42.854;23.222;2023-09-19T00:33:21;38243.19;;;-141.02;100.00
8477;BME280;4275;42.854;23.222;2023-09-19T00:35:50;38231.69;;;-141.02;100.00
8477;BME280;4275;42.854;23.222;2023-09-19T00:38:17;38224.03;;;-141.02;100.00
8477;BME280;4275;42.854;23.222;2023-09-19T00:40:48;38189.53;;;-141.02;100.00
8477;BME280;4275;42.854;23.222;2023-09-19T00:43:16;38218.28;;;-141.02;100.00
8477;BME280;4275;42.854;23.222;2023-09-19T00:45:48;38202.94;;;-141.02;100.00
8477;BME280;4275;42.854;23.222;2023-09-19T00:51:38;38135.84;;;-141.02;100.00
8477;BME280;4275;42.854;23.222;2023-09-19T00:54:11;38155.00;;;-141.02;100.00
8477;BME280;4275;42.854;23.222;2023-09-19T00:56:45;38141.59;;;-141.02;100.00
8477;BME280;4275;42.854;23.222;2023-09-19T00:59:13;38137.75;;;-141.02;100.00
8477;BME280;4275;42.854;23.222;2023-09-19T01:01:40;38120.50;;;-141.02;100.00
8477;BME280;4275;42.854;23.222;2023-09-19T01:04:08;38250.88;;;-141.02;100.00
8477;BME280;4275;42.854;23.222;2023-09-19T01:06:35;38128.16;;;-141.02;100.00
8477;BME280;4275;42.854;23.222;2023-09-19T01:09:03;38101.34;;;-141.02;100.00
8477;BME280;4275;42.854;23.222;2023-09-19T01:11:35;38170.34;;;-141.02;100.00
8477;BME280;4275;42.854;23.222;2023-09-19T01:14:16;38133.91;;;-141.02;100.00
8477;BME280;4275;42.854;23.222;2023-09-19T01:16:53;38118.59;;;-141.02;100.00
8477;BME280;4275;42.854;23.222;2023-09-19T01:19:42;38112.84;;;-141.02;100.00
8477;BME280;4275;42.854;23.222;2023-09-19T01:22:23;38093.66;;;-141.02;100.00
8477;BME280;4275;42.854;23.222;2023-09-19T01:25:13;38078.31;;;-141.02;100.00
8477;BME280;4275;42.854;23.222;2023-09-19T01:28:08;38074.50;;;-141.02;100.00
8477;BME280;4275;42.854;23.222;2023-09-19T01:30:44;38063.00;;;-141.02;100.00
8477;BME280;4275;42.854;23.222;2023-09-19T01:36:35;38063.00;;;-141.02;100.00
8477;BME280;4275;42.854;23.222;2023-09-19T01:39:05;38022.72;;;-141.02;100.00
8477;BME280;4275;42.854;23.222;2023-09-19T01:41:58;38041.91;;;-141.02;100.00
8477;BME280;4275;42.854;23.222;2023-09-19T01:44:38;38057.25;;;-141.02;100.00
8477;BME280;4275;42.854;23.222;2023-09-19T01:47:18;38059.16;;;-141.02;100.00
8477;BME280;4275;42.854;23.222;2023-09-19T01:49:55;38013.16;;;-141.02;100.00
8477;BME280;4275;42.854;23.222;2023-09-19T01:52:28;38024.66;;;-141.02;100.00
8477;BME280;4275;42.854;23.222;2023-09-19T01:55:01;38032.31;;;-141.02;100.00
8477;BME280;4275;42.854;23.222;2023-09-19T01:57:35;38066.81;;;-141.02;100.00
8477;BME280;4275;42.854;23.222;2023-09-19T02:00:10;38063.00;;;-141.02;100.00
8477;BME280;4275;42.854;23.222;2023-09-19T02:02:43;38086.00;;;-141.02;100.00
8477;BME280;4275;42.854;23.222;2023-09-19T02:05:11;38087.91;;;-141.02;100.00
8477;BME280;4275;42.854;23.222;2023-09-19T02:07:38;38082.16;;;-141.02;100.00
8477;BME280;4275;42.854;23.222;2023-09-19T02:10:07;38097.50;;;-141.02;100.00
8477;BME280;4275;42.854;23.222;2023-09-19T02:12:36;38101.34;;;-141.02;100.00
8477;BME280;4275;42.854;23.222;2023-09-19T02:15:04;38109.00;;;-141.02;100.00
8477;BME280;4275;42.854;23.222;2023-09-19T02:17:32;38120.50;;;-141.02;100.00
8477;BME280;4275;42.854;23.222;2023-09-19T02:20:00;38139.69;;;-141.02;100.00
8477;BME280;4275;42.854;23.222;2023-09-19T02:22:27;38166.50;;;-141.02;100.00
8477;BME280;4275;42.854;23.222;2023-09-19T02:24:55;38158.84;;;-141.02;100.00
8477;BME280;4275;42.854;23.222;2023-09-19T02:27:25;38170.34;;;-141.02;100.00
8477;BME280;4275;42.854;23.222;2023-09-19T02:29:52;38162.69;;;-141.02;100.00
8477;BME280;4275;42.854;23.222;2023-09-19T02:32:20;38174.19;;;-141.02;100.00
8477;BME280;4275;42.854;23.222;2023-09-19T02:34:47;38220.19;;;-141.02;100.00
8477;BME280;4275;42.854;23.222;2023-09-19T02:37:16;38189.53;;;-141.02;100.00
8477;BME280;4275;42.854;23.222;2023-09-19T02:39:44;38225.94;;;-141.02;100.00
8477;BME280;4275;42.854;23.222;2023-09-19T02:42:12;38210.59;;;-141.02;100.00
8477;BME280;4275;42.854;23.222;2023-09-19T02:44:39;38273.88;;;-141.02;100.00
8477;BME280;4275;42.854;23.222;2023-09-19T02:47:06;38252.78;;;-141.02;100.00
8477;BME280;4275;42.854;23.222;2023-09-19T02:49:35;38283.47;;;-141.02;100.00
8477;BME280;4275;42.854;23.222;2023-09-19T02:52:02;38277.72;;;-141.02;100.00
8477;BME280;4275;42.854;23.222;2023-09-19T02:54:32;38306.47;;;-141.02;100.00
8477;BME280;4275;42.854;23.222;2023-09-19T02:56:59;38293.03;;;-141.02;100.00
8477;BME280;4275;42.854;23.222;2023-09-19T02:59:27;38293.03;;;-141.02;100.00
8477;BME280;4275;42.854;23.222;2023-09-19T03:01:55;38319.88;;;-141.02;100.00
8477;BME280;4275;42.854;23.222;2023-09-19T03:04:23;38329.47;;;-141.02;100.00
8477;BME280;4275;42.854;23.222;2023-09-19T03:06:52;38339.06;;;-141.02;100.00
8477;BME280;4275;42.854;23.222;2023-09-19T03:09:24;38379.31;;;-141.02;100.00
8477;BME280;4275;42.854;23.222;2023-09-19T03:11:52;38369.72;;;-141.02;100.00
8477;BME280;4275;42.854;23.222;2023-09-19T03:14:20;38400.41;;;-141.02;100.00
8477;BME280;4275;42.854;23.222;2023-09-19T03:16:48;38386.97;;;-141.02;100.00
8477;BME280;4275;42.854;23.222;2023-09-19T03:19:18;38408.06;;;-141.02;100.00
8477;BME280;4275;42.854;23.222;2023-09-19T03:21:46;38434.91;;;-141.02;100.00
8477;BME280;4275;42.854;23.222;2023-09-19T03:24:16;38429.16;;;-141.02;100.00
8477;BME280;4275;42.854;23.222;2023-09-19T03:26:43;38434.91;;;-141.02;100.00
8477;BME280;4275;42.854;23.222;2023-09-19T03:29:12;38480.94;;;-141.02;100.00
8477;BME280;4275;42.854;23.222;2023-09-19T03:31:39;38521.19;;;-141.02;100.00
8477;BME280;4275;42.854;23.222;2023-09-19T03:34:06;38486.69;;;-141.02;100.00
8477;BME280;4275;42.854;23.222;2023-09-19T03:36:34;38519.28;;;-141.02;100.00
8477;BME280;4275;42.854;23.222;2023-09-19T03:39:02;38519.28;;;-141.02;100.00
8477;BME280;4275;42.854;23.222;2023-09-19T03:41:30;38515.44;;;-141.02;100.00
8477;BME280;4275;42.854;23.222;2023-09-19T03:43:58;38565.28;;;-141.02;100.00
8477;BME280;4275;42.854;23.222;2023-09-19T03:46:27;38599.81;;;-141.02;100.00
8477;BME280;4275;42.854;23.222;2023-09-19T03:48:54;38632.41;;;-141.02;100.00
8477;BME280;4275;42.854;23.222;2023-09-19T03:51:21;38592.13;;;-141.02;100.00
8477;BME280;4275;42.854;23.222;2023-09-19T03:53:48;38643.91;;;-141.02;100.00
8477;BME280;4275;42.854;23.222;2023-09-19T03:56:15;38795.38;;;-141.02;100.00
8477;BME280;4275;42.854;23.222;2023-09-19T03:58:43;39144.38;;;-141.02;100.00
8477;BME280;4275;42.854;23.222;2023-09-19T04:01:10;39811.78;;;-141.02;100.00
8477;BME280;4275;42.854;23.222;2023-09-19T04:03:40;40421.75;;;-141.02;100.00
8477;BME280;4275;42.854;23.222;2023-09-19T04:06:13;40966.63;;;-141.02;100.00
8477;BME280;4275;42.854;23.222;2023-09-19T04:08:39;41281.31;;;-141.02;100.00
8477;BME280;4275;42.854;23.222;2023-09-19T04:11:06;41761.06;;;-141.02;100.00
8477;BME280;4275;42.854;23.222;2023-09-19T04:13:33;42394.41;;;-141.02;100.00
8477;BME280;4275;42.854;23.222;2023-09-19T04:16:00;42716.91;;;-141.02;100.00
8477;BME280;4275;42.854;23.222;2023-09-19T04:18:29;43070.16;;;-141.02;100.00
8477;BME280;4275;42.854;23.222;2023-09-19T04:20:59;43669.22;;;-141.02;100.00
8477;BME280;4275;42.854;23.222;2023-09-19T04:23:28;43922.69;;;-141.02;100.00
8477;BME280;4275;42.854;23.222;2023-09-19T04:25:55;44114.72;;;-141.02;100.00
8477;BME280;4275;42.854;23.222;2023-09-19T04:28:22;44101.28;;;-141.02;100.00
8477;BME280;4275;42.854;23.222;2023-09-19T04:30:49;43888.13;;;-141.02;100.00
8477;BME280;4275;42.854;23.222;2023-09-19T04:33:16;43619.28;;;-141.02;100.00
8477;BME280;4275;42.854;23.222;2023-09-19T04:35:44;43242.94;;;-141.02;100.00
8477;BME280;4275;42.854;23.222;2023-09-19T04:38:12;42882.00;;;-141.02;100.00
8477;BME280;4275;42.854;23.222;2023-09-19T04:40:41;42582.53;;;-141.02;100.00
8477;BME280;4275;42.854;23.222;2023-09-19T04:43:08;42436.66;;;-141.02;100.00
8477;BME280;4275;42.854;23.222;2023-09-19T04:45:35;42260.06;;;-141.02;100.00
8477;BME280;4275;42.854;23.222;2023-09-19T04:48:02;42181.38;;;-141.02;100.00
8477;BME280;4275;42.854;23.222;2023-09-19T04:50:29;42133.38;;;-141.02;100.00
8477;BME280;4275;42.854;23.222;2023-09-19T04:52:56;42002.88;;;-141.02;100.00
8477;BME280;4275;42.854;23.222;2023-09-19T04:55:25;41914.59;;;-141.02;100.00
8477;BME280;4275;42.854;23.222;2023-09-19T04:57:52;41966.41;;;-141.02;100.00
8477;BME280;4275;42.854;23.222;2023-09-19T05:00:21;41851.25;;;-141.02;100.00
8477;BME280;4275;42.854;23.222;2023-09-19T05:02:50;41993.28;;;-141.02;100.00
8477;BME280;4275;42.854;23.222;2023-09-19T05:05:18;41807.09;;;-141.02;100.00
8477;BME280;4275;42.854;23.222;2023-09-19T05:07:45;41814.78;;;-141.02;100.00
8477;BME280;4275;42.854;23.222;2023-09-19T05:10:12;41778.31;;;-141.02;100.00
8477;BME280;4275;42.854;23.222;2023-09-19T05:12:41;41709.22;;;-141.02;100.00
8477;BME280;4275;42.854;23.222;2023-09-19T05:15:10;41716.91;;;-141.02;100.00
8477;BME280;4275;42.854;23.222;2023-09-19T05:17:38;41837.81;;;-141.02;100.00
8477;BME280;4275;42.854;23.222;2023-09-19T05:20:06;41678.53;;;-141.02;100.00
8477;BME280;4275;42.854;23.222;2023-09-19T05:22:50;41713.06;;;-141.02;100.00
8477;BME280;4275;42.854;23.222;2023-09-19T05:25:24;41588.34;;;-141.02;100.00
8477;BME280;4275;42.854;23.222;2023-09-19T05:27:54;41711.16;;;-141.02;100.00
8477;BME280;4275;42.854;23.222;2023-09-19T05:30:21;41874.28;;;-141.02;100.00
8477;BME280;4275;42.854;23.222;2023-09-19T05:32:48;41661.25;;;-141.02;100.00
8477;BME280;4275;42.854;23.222;2023-09-19T05:35:16;41480.88;;;-141.02;100.00
8477;BME280;4275;42.854;23.222;2023-09-19T05:37:43;41369.56;;;-141.02;100.00
8477;BME280;4275;42.854;23.222;2023-09-19T05:40:10;41354.22;;;-141.02;100.00
8477;BME280;4275;42.854;23.222;2023-09-19T05:42:38;41411.78;;;-141.02;100.00
8477;BME280;4275;42.854;23.222;2023-09-19T05:45:07;41296.66;;;-141.02;100.00
8477;BME280;4275;42.854;23.222;2023-09-19T05:47:37;41264.03;;;-141.02;100.00
8477;BME280;4275;42.854;23.222;2023-09-19T05:50:06;41292.81;;;-141.02;100.00
8477;BME280;4275;42.854;23.222;2023-09-19T05:52:34;41189.19;;;-141.02;100.00
8477;BME280;4275;42.854;23.222;2023-09-19T05:55:03;41164.25;;;-141.02;100.00
8477;BME280;4275;42.854;23.222;2023-09-19T05:57:31;41196.88;;;-141.02;100.00
8477;BME280;4275;42.854;23.222;2023-09-19T05:59:58;41212.22;;;-141.02;100.00
8477;BME280;4275;42.854;23.222;2023-09-19T06:02:26;41241.00;;;-141.02;100.00
8477;BME280;4275;42.854;23.222;2023-09-19T06:04:55;41260.19;;;-141.02;100.00
8477;BME280;4275;42.854;23.222;2023-09-19T06:07:22;41400.28;;;-141.02;100.00
8477;BME280;4275;42.854;23.222;2023-09-19T06:09:53;41455.91;;;-141.02;100.00
8477;BME280;4275;42.854;23.222;2023-09-19T06:12:20;41406.03;;;-141.02;100.00
8477;BME280;4275;42.854;23.222;2023-09-19T06:14:47;41381.09;;;-141.02;100.00
8477;BME280;4275;42.854;23.222;2023-09-19T06:17:14;41549.94;;;-141.02;100.00
8477;BME280;4275;42.854;23.222;2023-09-19T06:19:44;41404.09;;;-141.02;100.00
8477;BME280;4275;42.854;23.222;2023-09-19T06:22:15;41329.28;;;-141.02;100.00
8477;BME280;4275;42.854;23.222;2023-09-19T06:24:43;41041.44;;;-141.02;100.00
8477;BME280;4275;42.854;23.222;2023-09-19T06:27:10;40928.25;;;-141.02;100.00
8477;BME280;4275;42.854;23.222;2023-09-19T06:29:37;40868.78;;;-141.02;100.00
8477;BME280;4275;42.854;23.222;2023-09-19T06:32:07;40751.72;;;-141.02;100.00
8477;BME280;4275;42.854;23.222;2023-09-19T06:34:34;40699.94;;;-141.02;100.00
8477;BME280;4275;42.854;23.222;2023-09-19T06:37:03;40740.22;;;-141.02;100.00
8477;BME280;4275;42.854;23.222;2023-09-19T06:39:31;40751.72;;;-141.02;100.00
8477;BME280;4275;42.854;23.222;2023-09-19T06:41:58;40605.94;;;-141.02;100.00
8477;BME280;4275;42.854;23.222;2023-09-19T06:44:27;40776.69;;;-141.02;100.00
8477;BME280;4275;42.854;23.222;2023-09-19T06:46:55;40604.00;;;-141.02;100.00
8477;BME280;4275;42.854;23.222;2023-09-19T06:49:22;40694.19;;;-141.02;100.00
8477;BME280;4275;42.854;23.222;2023-09-19T06:51:49;40644.28;;;-141.02;100.00
8477;BME280;4275;42.854;23.222;2023-09-19T06:54:17;40675.00;;;-141.02;100.00
8477;BME280;4275;42.854;23.222;2023-09-19T06:56:44;40621.28;;;-141.02;100.00
8477;BME280;4275;42.854;23.222;2023-09-19T06:59:11;40602.09;;;-141.02;100.00
8477;BME280;4275;42.854;23.222;2023-09-19T07:01:40;40598.25;;;-141.02;100.00
8477;BME280;4275;42.854;23.222;2023-09-19T07:04:10;40467.81;;;-141.02;100.00
8477;BME280;4275;42.854;23.222;2023-09-19T07:06:38;40467.81;;;-141.02;100.00
8477;BME280;4275;42.854;23.222;2023-09-19T07:09:05;40525.34;;;-141.02;100.00
8477;BME280;4275;42.854;23.222;2023-09-19T07:11:35;40490.81;;;-141.02;100.00
8477;BME280;4275;42.854;23.222;2023-09-19T07:14:02;40561.81;;;-141.02;100.00
8477;BME280;4275;42.854;23.222;2023-09-19T07:16:31;40519.59;;;-141.02;100.00
8477;BME280;4275;42.854;23.222;2023-09-19T07:18:58;40513.84;;;-141.02;100.00
8477;BME280;4275;42.854;23.222;2023-09-19T07:21:25;40557.97;;;-141.02;100.00
8477;BME280;4275;42.854;23.222;2023-09-19T07:23:52;40544.53;;;-141.02;100.00
8477;BME280;4275;42.854;23.222;2023-09-19T07:26:19;40498.50;;;-141.02;100.00
8477;BME280;4275;42.854;23.222;2023-09-19T07:28:47;40463.97;;;-141.02;100.00
8477;BME280;4275;42.854;23.222;2023-09-19T07:31:14;40494.66;;;-141.02;100.00
8477;BME280;4275;42.854;23.222;2023-09-19T07:33:42;40465.88;;;-141.02;99.61
8477;BME280;4275;42.854;23.222;2023-09-19T07:36:10;40460.13;;;-141.02;99.98
8477;BME280;4275;42.854;23.222;2023-09-19T07:38:39;40460.13;;;-141.02;99.66
8477;BME280;4275;42.854;23.222;2023-09-19T07:41:06;40481.22;;;-141.02;99.96
8477;BME280;4275;42.854;23.222;2023-09-19T07:43:35;40513.84;;;-141.02;99.28
8477;BME280;4275;42.854;23.222;2023-09-19T07:46:05;40590.59;;;-141.02;97.60
8477;BME280;4275;42.854;23.222;2023-09-19T07:48:34;40701.84;;;-141.02;97.14
8477;BME280;4275;42.854;23.222;2023-09-19T07:51:03;40728.72;;;-141.02;95.62
8477;BME280;4275;42.854;23.222;2023-09-19T07:53:30;40719.13;;;-141.02;93.91
8477;BME280;4275;42.854;23.222;2023-09-19T07:56:04;40717.19;;;-141.02;91.74
8477;BME280;4275;42.854;23.222;2023-09-19T07:58:32;40793.94;;;-141.02;90.64
8477;BME280;4275;42.854;23.222;2023-09-19T08:01:05;40778.59;;;-141.02;89.94
8477;BME280;4275;42.854;23.222;2023-09-19T08:03:33;40840.00;;;-141.02;89.92
8477;BME280;4275;42.854;23.222;2023-09-19T08:06:00;40849.59;;;-141.02;89.60
8477;BME280;4275;42.854;23.222;2023-09-19T08:08:29;40874.53;;;-141.02;85.16
8477;BME280;4275;42.854;23.222;2023-09-19T08:10:56;40840.00;;;-141.02;85.83
8477;BME280;4275;42.854;23.222;2023-09-19T08:13:23;40830.41;;;-141.02;84.72
8477;BME280;4275;42.854;23.222;2023-09-19T08:15:50;40838.06;;;-141.02;84.69
8477;BME280;4275;42.854;23.222;2023-09-19T08:18:20;40757.50;;;-141.02;84.72
8477;BME280;4275;42.854;23.222;2023-09-19T08:20:51;40684.59;;;-141.02;84.67
8477;BME280;4275;42.854;23.222;2023-09-19T08:23:18;40686.50;;;-141.02;86.05
8477;BME280;4275;42.854;23.222;2023-09-19T08:25:46;40709.53;;;-141.02;86.11
8477;BME280;4275;42.854;23.222;2023-09-19T08:28:13;40830.41;;;-141.02;85.59
8477;BME280;4275;42.854;23.222;2023-09-19T08:30:45;40826.56;;;-141.02;86.95
8477;BME280;4275;42.854;23.222;2023-09-19T08:33:12;40721.03;;;-141.02;83.56
8477;BME280;4275;42.854;23.222;2023-09-19T08:35:42;40719.13;;;-141.02;82.87
8477;BME280;4275;42.854;23.222;2023-09-19T08:38:10;40930.16;;;-141.02;83.34
8477;BME280;4275;42.854;23.222;2023-09-19T08:40:39;41008.84;;;-141.02;81.09
8477;BME280;4275;42.854;23.222;2023-09-19T08:43:07;41093.25;;;-141.02;79.62
8477;BME280;4275;42.854;23.222;2023-09-19T08:45:35;41258.28;;;-141.02;79.43
8477;BME280;4275;42.854;23.222;2023-09-19T08:48:20;41047.22;;;-141.02;76.68
8477;BME280;4275;42.854;23.222;2023-09-19T08:50:52;41085.59;;;-141.02;76.30
8477;BME280;4275;42.854;23.222;2023-09-19T08:53:30;41300.50;;;-141.02;75.74
8477;BME280;4275;42.854;23.222;2023-09-19T08:55:59;41507.72;;;-141.02;75.82
8477;BME280;4275;42.854;23.222;2023-09-19T08:58:31;41546.13;;;-141.02;73.45
8477;BME280;4275;42.854;23.222;2023-09-19T09:01:01;41359.97;;;-141.02;72.55
8477;BME280;4275;42.854;23.222;2023-09-19T09:03:33;41423.28;;;-141.02;70.96
8477;BME280;4275;42.854;23.222;2023-09-19T09:06:03;41118.19;;;-141.02;70.08
8477;BME280;4275;42.854;23.222;2023-09-19T09:08:31;40943.59;;;-141.02;70.88
8477;BME280;4275;42.854;23.222;2023-09-19T09:10:58;41062.56;;;-141.02;70.41
8477;BME280;4275;42.854;23.222;2023-09-19T09:13:26;41074.06;;;-141.02;72.68
8477;BME280;4275;42.854;23.222;2023-09-19T09:15:53;41116.28;;;-141.02;72.29
8477;BME280;4275;42.854;23.222;2023-09-19T09:18:20;41150.81;;;-141.02;71.89
8477;BME280;4275;42.854;23.222;2023-09-19T09:20:48;41158.50;;;-141.02;72.13
8477;BME280;4275;42.854;23.222;2023-09-19T09:23:16;41150.81;;;-141.02;71.23
8477;BME280;4275;42.854;23.222;2023-09-19T09:25:47;41089.41;;;-141.02;72.77
8477;BME280;4275;42.854;23.222;2023-09-19T09:28:19;41074.06;;;-141.02;72.97
8477;BME280;4275;42.854;23.222;2023-09-19T09:30:47;41097.09;;;-141.02;72.98
8477;BME280;4275;42.854;23.222;2023-09-19T09:33:14;41131.63;;;-141.02;72.69
8477;BME280;4275;42.854;23.222;2023-09-19T09:35:49;41150.81;;;-141.02;72.93
8477;BME280;4275;42.854;23.222;2023-09-19T09:38:20;41317.75;;;-141.02;72.69
8477;BME280;4275;42.854;23.222;2023-09-19T09:40:52;41356.13;;;-141.02;70.28
8477;BME280;4275;42.854;23.222;2023-09-19T09:43:29;41265.94;;;-141.02;70.10
8477;BME280;4275;42.854;23.222;2023-09-19T09:46:10;41265.94;;;-141.02;69.41
8477;BME280;4275;42.854;23.222;2023-09-19T09:49:10;41131.63;;;-141.02;71.13
8477;BME280;4275;42.854;23.222;2023-09-19T09:51:59;41099.00;;;-141.02;72.23
8477;BME280;4275;42.854;23.222;2023-09-19T09:54:33;41058.72;;;-141.02;71.76
8477;BME280;4275;42.854;23.222;2023-09-19T09:57:03;41066.41;;;-141.02;70.51
8477;BME280;4275;42.854;23.222;2023-09-19T09:59:50;41112.44;;;-141.02;72.56
8477;BME280;4275;42.854;23.222;2023-09-19T10:02:20;41166.16;;;-141.02;70.92
8477;BME280;4275;42.854;23.222;2023-09-19T10:04:51;41114.38;;;-141.02;71.87
8477;BME280;4275;42.854;23.222;2023-09-19T10:07:28;41143.16;;;-141.02;70.18
8477;BME280;4275;42.854;23.222;2023-09-19T10:10:01;41288.97;;;-141.02;70.03
8477;BME280;4275;42.854;23.222;2023-09-19T10:12:45;41244.84;;;-141.02;68.86
8477;BME280;4275;42.854;23.222;2023-09-19T10:15:14;41308.16;;;-141.02;69.29
8477;BME280;4275;42.854;23.222;2023-09-19T10:17:43;41208.38;;;-141.02;70.18
8477;BME280;4275;42.854;23.222;2023-09-19T10:20:16;41265.94;;;-141.02;69.62
8477;BME280;4275;42.854;23.222;2023-09-19T10:23:05;41302.41;;;-141.02;67.26
8477;BME280;4275;42.854;23.222;2023-09-19T10:25:39;41388.75;;;-141.02;67.41
8477;BME280;4275;42.854;23.222;2023-09-19T10:28:06;41427.13;;;-141.02;66.33
8477;BME280;4275;42.854;23.222;2023-09-19T10:30:41;41446.31;;;-141.02;66.62
8477;BME280;4275;42.854;23.222;2023-09-19T10:33:10;41413.69;;;-141.02;65.90
8477;BME280;4275;42.854;23.222;2023-09-19T10:35:38;41430.97;;;-141.02;66.17
8477;BME280;4275;42.854;23.222;2023-09-19T10:38:10;41413.69;;;-141.02;65.59
8477;BME280;4275;42.854;23.222;2023-09-19T10:40:39;41503.91;;;-141.02;66.58
8477;BME280;4275;42.854;23.222;2023-09-19T10:43:12;41578.75;;;-141.02;66.34
8477;BME280;4275;42.854;23.222;2023-09-19T10:45:41;41885.78;;;-141.02;65.84
8477;BME280;4275;42.854;23.222;2023-09-19T10:48:10;41565.31;;;-141.02;64.62
8477;BME280;4275;42.854;23.222;2023-09-19T10:50:44;41438.66;;;-141.02;65.62
8477;BME280;4275;42.854;23.222;2023-09-19T10:53:14;41517.31;;;-141.02;66.13
8477;BME280;4275;42.854;23.222;2023-09-19T10:55:52;41565.31;;;-141.02;65.13
8477;BME280;4275;42.854;23.222;2023-09-19T10:58:28;41734.19;;;-141.02;64.97
8477;BME280;4275;42.854;23.222;2023-09-19T11:00:56;41766.81;;;-141.02;65.29
8477;BME280;4275;42.854;23.222;2023-09-19T11:03:28;41569.13;;;-141.02;64.45
8477;BME280;4275;42.854;23.222;2023-09-19T11:06:01;41653.59;;;-141.02;65.11
8477;BME280;4275;42.854;23.222;2023-09-19T11:08:56;41645.91;;;-141.02;63.52
8477;BME280;4275;42.854;23.222;2023-09-19T11:11:44;41943.38;;;-141.02;64.33
8477;BME280;4275;42.854;23.222;2023-09-19T11:14:41;41895.38;;;-141.02;65.20
8477;BME280;4275;42.854;23.222;2023-09-19T11:17:37;42333.00;;;-141.02;62.66
8477;BME280;4275;42.854;23.222;2023-09-19T11:20:30;42022.06;;;-141.02;63.40
8477;BME280;4275;42.854;23.222;2023-09-19T11:23:22;42238.94;;;-141.02;63.36
8477;BME280;4275;42.854;23.222;2023-09-19T11:25:50;41822.47;;;-141.02;62.95
8477;BME280;4275;42.854;23.222;2023-09-19T11:28:33;42022.06;;;-141.02;63.14
8477;BME280;4275;42.854;23.222;2023-09-19T11:34:40;42772.59;;;-141.02;59.84
8477;BME280;4275;42.854;23.222;2023-09-19T11:40:32;42820.56;;;-141.02;58.84
8477;BME280;4275;42.854;23.222;2023-09-19T11:43:33;42793.69;;;-141.02;57.97
8477;BME280;4275;42.854;23.222;2023-09-19T11:46:04;42375.22;;;-141.02;58.53
8477;BME280;4275;42.854;23.222;2023-09-19T11:48:32;42405.94;;;-141.02;59.46
8477;BME280;4275;42.854;23.222;2023-09-19T11:51:00;42889.69;;;-141.02;59.64
8477;BME280;4275;42.854;23.222;2023-09-19T11:53:33;42858.97;;;-141.02;60.24
8477;BME280;4275;42.854;23.222;2023-09-19T11:56:04;42997.19;;;-141.02;58.81
8477;BME280;4275;42.854;23.222;2023-09-19T11:58:37;43177.66;;;-141.02;59.03
8477;BME280;4275;42.854;23.222;2023-09-19T12:01:05;42901.22;;;-141.02;58.28
8477;BME280;4275;42.854;23.222;2023-09-19T12:03:42;43150.78;;;-141.02;59.00
8477;BME280;4275;42.854;23.222;2023-09-19T12:06:14;43333.19;;;-141.02;58.68
8477;BME280;4275;42.854;23.222;2023-09-19T12:08:42;43229.50;;;-141.02;58.03
8477;BME280;4275;42.854;23.222;2023-09-19T12:11:13;43068.22;;;-141.02;57.45
8477;BME280;4275;42.854;23.222;2023-09-19T12:13:43;43202.63;;;-141.02;57.50
8477;BME280;4275;42.854;23.222;2023-09-19T12:16:15;43611.59;;;-141.02;56.97
8477;BME280;4275;42.854;23.222;2023-09-19T12:18:43;43515.59;;;-141.02;56.20
8477;BME280;4275;42.854;23.222;2023-09-19T12:21:23;43765.22;;;-141.02;55.11
8477;BME280;4275;42.854;23.222;2023-09-19T12:24:04;43356.22;;;-141.02;55.13
8477;BME280;4275;42.854;23.222;2023-09-19T12:26:39;43481.03;;;-141.02;54.77
8477;BME280;4275;42.854;23.222;2023-09-19T12:29:13;42642.03;;;-141.02;56.82
8477;BME280;4275;42.854;23.222;2023-09-19T12:31:51;42766.81;;;-141.02;58.17
8477;BME280;4275;42.854;23.222;2023-09-19T12:34:21;43338.94;;;-141.02;56.47
8477;BME280;4275;42.854;23.222;2023-09-19T12:36:49;43742.19;;;-141.02;56.33
8477;BME280;4275;42.854;23.222;2023-09-19T12:39:25;43794.03;;;-141.02;54.57
8477;BME280;4275;42.854;23.222;2023-09-19T12:41:53;43895.81;;;-141.02;53.98
8477;BME280;4275;42.854;23.222;2023-09-19T12:44:21;43669.22;;;-141.02;53.73
8477;BME280;4275;42.854;23.222;2023-09-19T12:46:50;43538.63;;;-141.02;54.65
8477;BME280;4275;42.854;23.222;2023-09-19T12:49:20;43600.09;;;-141.02;53.92
8477;BME280;4275;42.854;23.222;2023-09-19T12:51:49;43726.81;;;-141.02;54.47
8477;BME280;4275;42.854;23.222;2023-09-19T12:54:16;43550.16;;;-141.02;54.22
8477;BME280;4275;42.854;23.222;2023-09-19T12:56:44;43438.78;;;-141.02;54.28
8477;BME280;4275;42.854;23.222;2023-09-19T12:59:13;43490.63;;;-141.02;54.49
8477;BME280;4275;42.854;23.222;2023-09-19T13:01:42;43058.63;;;-141.02;54.33
8477;BME280;4275;42.854;23.222;2023-09-19T13:04:13;43874.69;;;-141.02;54.24
8477;BME280;4275;42.854;23.222;2023-09-19T13:06:44;43615.44;;;-141.02;54.40
8477;BME280;4275;42.854;23.222;2023-09-19T13:09:12;43650.00;;;-141.02;54.22
8477;BME280;4275;42.854;23.222;2023-09-19T13:11:40;43438.78;;;-141.02;53.02
8477;BME280;4275;42.854;23.222;2023-09-19T13:14:20;43181.50;;;-141.02;54.36
8477;BME280;4275;42.854;23.222;2023-09-19T13:16:59;43135.44;;;-141.02;54.83